Time;durP1;ratioP1;P1;durP2;ratioP2;P2;SDS_P1;SDS_P2;PMS_P1;PMS_P2;Temp;Humidity;BMP_temperature;BMP_pressure;BME280_temperature;BME280_humidity;BME280_pressure;Samples;Min_cycle;Max_cycle;Signal;HPM_P1;HPM_P2
2022/10/02 00:02:23;;;;;;;4.18;2.28;;;;;;;10.87;100.00;98512.94;4407703;32;20105;-78
2022/10/02 00:05:13;;;;;;;3.50;2.20;;;;;;;10.81;100.00;98512.56;4406936;32;20797;-78
2022/10/02 00:07:52;;;;;;;3.62;2.62;;;;;;;10.79;100.00;98519.72;4416010;32;20486;-78
2022/10/02 00:10:40;;;;;;;6.80;2.28;;;;;;;10.81;100.00;98520.41;4423391;32;20108;-78
2022/10/02 00:13:13;;;;;;;4.35;2.40;;;;;;;10.78;100.00;98525.09;4421909;32;20517;-78
2022/10/02 00:15:41;;;;;;;8.77;2.60;;;;;;;10.77;100.00;98540.00;4421997;32;20093;-78
2022/10/02 00:18:11;;;;;;;3.97;2.10;;;;;;;10.77;100.00;98529.53;4421946;32;20166;-78
2022/10/02 00:20:59;;;;;;;2.90;2.25;;;;;;;10.81;100.00;98536.13;4422009;32;20102;-78
2022/10/02 00:23:32;;;;;;;4.80;2.42;;;;;;;10.83;100.00;98534.19;4423028;32;20152;-78
2022/10/02 00:26:04;;;;;;;4.07;2.35;;;;;;;10.82;100.00;98535.19;4418510;32;20106;-77
2022/10/02 00:29:00;;;;;;;3.33;2.10;;;;;;;10.84;100.00;98548.13;4406689;32;20125;-78
2022/10/02 00:31:40;;;;;;;3.85;2.28;;;;;;;10.83;100.00;98552.53;4407766;32;20093;-77
2022/10/02 00:34:29;;;;;;;4.72;2.15;;;;;;;10.79;100.00;98564.25;4406706;32;20106;-77
2022/10/02 00:37:38;;;;;;;3.70;1.83;;;;;;;10.80;100.00;98565.09;4408074;32;20372;-77
2022/10/02 00:40:43;;;;;;;6.28;1.90;;;;;;;10.78;100.00;98574.88;4375048;32;20209;-78
2022/10/02 00:43:26;;;;;;;4.30;1.73;;;;;;;10.84;100.00;98576.97;4375112;32;20086;-77
2022/10/02 00:46:18;;;;;;;2.35;1.70;;;;;;;10.88;100.00;98578.31;4362906;32;20158;-77
2022/10/02 00:49:03;;;;;;;2.00;1.60;;;;;;;10.91;100.00;98571.97;4375220;32;20146;-77
2022/10/02 00:51:50;;;;;;;2.55;1.70;;;;;;;10.90;100.00;98571.13;4375356;32;20637;-77
2022/10/02 00:54:36;;;;;;;4.43;2.30;;;;;;;10.88;100.00;98577.47;4375187;32;20112;-78
2022/10/02 00:57:10;;;;;;;2.33;1.87;;;;;;;10.85;100.00;98570.72;4375430;32;20609;-77
2022/10/02 01:00:06;;;;;;;2.70;1.50;;;;;;;10.85;100.00;98575.16;4375204;32;20605;-78
2022/10/02 01:02:43;;;;;;;4.60;1.62;;;;;;;10.83;100.00;98567.44;4375185;32;20121;-78
2022/10/02 01:05:10;;;;;;;5.72;1.60;;;;;;;10.81;100.00;98558.91;4375084;32;20086;-78
2022/10/02 01:07:41;;;;;;;2.10;1.30;;;;;;;10.78;100.00;98551.31;4375058;32;20560;-78
2022/10/02 01:10:09;;;;;;;2.05;1.50;;;;;;;10.82;100.00;98550.91;4374997;32;20121;-78
2022/10/02 01:12:36;;;;;;;4.45;2.10;;;;;;;10.75;100.00;98549.81;4375026;32;20103;-78
2022/10/02 01:15:17;;;;;;;4.82;1.60;;;;;;;10.74;100.00;98555.19;4362688;32;20182;-78
2022/10/02 01:17:50;;;;;;;1.80;1.40;;;;;;;10.70;100.00;98552.03;4413059;32;20082;-78
2022/10/02 01:20:37;;;;;;;3.53;1.40;;;;;;;10.68;100.00;98547.91;4421570;32;20157;-77
2022/10/02 01:23:19;;;;;;;1.50;1.30;;;;;;;10.61;100.00;98552.87;4421927;32;20415;-77
2022/10/02 01:25:46;;;;;;;3.42;1.33;;;;;;;10.63;100.00;98550.97;4422830;32;20137;-78
2022/10/02 01:28:13;;;;;;;3.58;1.30;;;;;;;10.62;100.00;98562.41;4422833;32;20124;-77
2022/10/02 01:30:43;;;;;;;3.30;1.58;;;;;;;10.65;100.00;98565.56;4422928;32;20094;-76
2022/10/02 01:33:12;;;;;;;2.08;1.55;;;;;;;10.68;100.00;98569.69;4409161;32;20128;-78
2022/10/02 01:35:39;;;;;;;3.72;1.50;;;;;;;10.71;100.00;98574.66;4408948;32;20101;-78
2022/10/02 01:38:09;;;;;;;3.47;1.35;;;;;;;10.66;100.00;98582.13;4422767;32;20097;-78
2022/10/02 01:40:38;;;;;;;2.62;1.67;;;;;;;10.68;100.00;98584.59;4408849;32;20745;-78
2022/10/02 01:43:08;;;;;;;2.28;1.50;;;;;;;10.68;100.00;98580.16;4421845;32;20152;-78
2022/10/02 01:45:36;;;;;;;2.03;1.40;;;;;;;10.62;100.00;98592.03;4408652;32;20446;-78
2022/10/02 01:48:18;;;;;;;1.70;1.45;;;;;;;10.59;100.00;98594.12;4422633;32;20129;-78
2022/10/02 01:50:48;;;;;;;1.52;1.40;;;;;;;10.61;100.00;98600.03;4422710;32;20125;-77
2022/10/02 01:53:15;;;;;;;2.15;1.40;;;;;;;10.58;100.00;98610.78;4422497;32;20498;-78
2022/10/02 01:56:02;;;;;;;2.42;1.50;;;;;;;10.54;100.00;98609.44;4422811;32;20432;-77
2022/10/02 01:58:44;;;;;;;1.67;1.17;;;;;;;10.55;100.00;98611.06;4422684;32;20112;-78
2022/10/02 02:01:24;;;;;;;3.90;1.40;;;;;;;10.57;100.00;98620.47;4408748;32;20528;-78
2022/10/02 02:04:00;;;;;;;3.75;1.40;;;;;;;10.54;100.00;98622.53;4422691;32;20151;-78
2022/10/02 02:06:31;;;;;;;2.30;1.17;;;;;;;10.54;100.00;98627.78;4422488;32;20133;-78
2022/10/02 02:09:08;;;;;;;5.03;1.30;;;;;;;10.46;100.00;98629.31;4421229;32;20153;-78
2022/10/02 02:11:39;;;;;;;2.80;1.12;;;;;;;10.47;100.00;98643.22;4421171;32;20176;-78
2022/10/02 02:14:16;;;;;;;1.80;1.23;;;;;;;10.49;100.00;98641.28;4420895;32;20487;-77
2022/10/02 02:16:44;;;;;;;1.85;1.20;;;;;;;10.45;100.00;98647.78;4421220;32;20113;-77
2022/10/02 02:19:36;;;;;;;4.28;1.30;;;;;;;10.50;100.00;98647.34;4422409;32;20112;-78
2022/10/02 02:22:11;;;;;;;2.50;1.00;;;;;;;10.46;100.00;98649.41;4421244;32;20383;-77
2022/10/02 02:24:42;;;;;;;1.98;1.20;;;;;;;10.45;100.00;98664.31;4421032;32;20106;-77
2022/10/02 02:27:13;;;;;;;1.42;1.08;;;;;;;10.45;100.00;98663.50;4409849;32;20081;-78
2022/10/02 02:29:42;;;;;;;5.97;1.05;;;;;;;10.37;100.00;98665.97;4405547;32;20141;-78
2022/10/02 02:32:13;;;;;;;6.65;2.42;;;;;;;10.44;100.00;98673.13;4406809;32;20452;-78
2022/10/02 02:34:44;;;;;;;2.67;0.90;;;;;;;10.40;100.00;98670.91;4405685;32;20089;-78
2022/10/02 02:37:15;;;;;;;4.60;1.20;;;;;;;10.38;100.00;98660.56;4405700;32;20447;-77
2022/10/02 02:39:51;;;;;;;0.95;0.82;;;;;;;10.38;100.00;98660.56;4405415;32;20124;-78
2022/10/02 02:42:21;;;;;;;1.70;1.15;;;;;;;10.35;100.00;98667.91;4405529;32;20101;-78
2022/10/02 02:45:02;;;;;;;4.95;1.02;;;;;;;10.33;100.00;98673.28;4405445;32;20124;-78
2022/10/02 02:47:48;;;;;;;2.95;1.00;;;;;;;10.36;100.00;98673.00;4405467;32;20169;-77
2022/10/02 02:50:28;;;;;;;1.33;1.00;;;;;;;10.42;100.00;98672.44;4406749;32;20078;-78
2022/10/02 02:52:58;;;;;;;2.75;1.10;;;;;;;10.43;100.00;98675.87;4405587;32;20863;-78
2022/10/02 02:55:30;;;;;;;2.37;1.05;;;;;;;10.45;100.00;98679.19;4407127;32;20139;-78
2022/10/02 02:58:04;;;;;;;2.62;1.40;;;;;;;10.45;100.00;98685.25;4407464;32;20085;-78
2022/10/02 03:00:31;;;;;;;4.15;1.10;;;;;;;10.39;100.00;98683.19;4407272;32;20086;-78
2022/10/02 03:02:59;;;;;;;6.10;1.17;;;;;;;10.37;100.00;98690.37;4407533;32;20464;-78
2022/10/02 03:05:28;;;;;;;1.50;1.00;;;;;;;10.38;100.00;98685.94;4408380;32;20517;-78
2022/10/02 03:08:08;;;;;;;2.35;1.48;;;;;;;10.39;100.00;98700.72;4417969;32;20105;-78
2022/10/02 03:11:05;;;;;;;11.23;1.50;;;;;;;10.36;100.00;98696.56;4422512;32;20152;-78
2022/10/02 03:13:57;;;;;;;3.80;1.20;;;;;;;10.36;100.00;98699.19;4422513;32;20496;-78
2022/10/02 03:16:27;;;;;;;4.10;1.60;;;;;;;10.30;100.00;98689.22;4423629;32;20115;-78
2022/10/02 03:18:57;;;;;;;3.20;1.17;;;;;;;10.29;100.00;98692.78;4423855;32;20109;-78
2022/10/02 03:21:34;;;;;;;3.12;0.93;;;;;;;10.32;100.00;98700.38;4424078;32;20089;-78
2022/10/02 03:24:10;;;;;;;4.78;1.50;;;;;;;10.34;100.00;98705.50;4422666;32;20209;-77
2022/10/02 03:27:01;;;;;;;2.65;1.48;;;;;;;10.38;100.00;98712.13;4414761;32;20094;-77
2022/10/02 03:29:35;;;;;;;4.30;1.62;;;;;;;10.42;100.00;98710.91;4408503;32;20114;-78
2022/10/02 03:32:04;;;;;;;2.62;1.40;;;;;;;10.45;100.00;98714.06;4408175;32;20172;-77
2022/10/02 03:34:31;;;;;;;2.10;1.20;;;;;;;10.46;100.00;98707.88;4407154;32;20106;-78
2022/10/02 03:36:59;;;;;;;3.50;1.60;;;;;;;10.41;100.00;98715.28;4407156;32;20520;-77
2022/10/02 03:39:26;;;;;;;3.55;1.30;;;;;;;10.42;100.00;98714.34;4407222;32;20101;-77
2022/10/02 03:41:54;;;;;;;1.80;1.10;;;;;;;10.44;100.00;98712.41;4408311;32;20172;-77
2022/10/02 03:44:21;;;;;;;3.30;1.30;;;;;;;10.45;100.00;98710.63;4408149;32;20094;-77
2022/10/02 03:46:48;;;;;;;1.30;1.10;;;;;;;10.48;100.00;98710.34;4408217;32;20108;-77
2022/10/02 03:49:15;;;;;;;2.53;1.40;;;;;;;10.44;100.00;98722.88;4408550;32;20494;-78
2022/10/02 03:51:42;;;;;;;3.25;1.30;;;;;;;10.44;100.00;98722.88;4408060;32;20153;-78
2022/10/02 03:54:16;;;;;;;2.17;1.12;;;;;;;10.39;100.00;98722.47;4408227;32;20098;-78
2022/10/02 03:57:05;;;;;;;2.58;1.02;;;;;;;10.37;100.00;98727.03;4408399;32;20189;-78
2022/10/02 03:59:46;;;;;;;1.95;0.90;;;;;;;10.39;100.00;98727.72;4408423;32;20085;-78
2022/10/02 04:02:43;;;;;;;2.30;1.17;;;;;;;10.46;100.00;98720.13;4408299;32;20371;-78
2022/10/02 04:05:31;;;;;;;1.80;1.10;;;;;;;10.51;100.00;98725.78;4406251;32;20153;-78
2022/10/02 04:08:13;;;;;;;2.20;1.00;;;;;;;10.61;100.00;98731.00;4418814;32;20085;-78
2022/10/02 04:10:51;;;;;;;3.72;1.00;;;;;;;10.59;100.00;98727.72;4423626;32;20144;-78
2022/10/02 04:14:05;;;;;;;1.30;0.82;;;;;;;10.61;100.00;98731.00;4422067;32;20107;-78
2022/10/02 04:16:45;;;;;;;1.45;1.10;;;;;;;10.65;100.00;98732.41;4347987;32;20107;-78
2022/10/02 04:19:23;;;;;;;1.52;1.12;;;;;;;10.60;100.00;98730.19;4360638;32;20201;-78
2022/10/02 04:22:11;;;;;;;4.18;0.93;;;;;;;10.57;100.00;98740.12;4360642;32;20587;-78
2022/10/02 04:24:53;;;;;;;6.30;1.55;;;;;;;10.55;100.00;98739.44;4360423;32;20155;-78
2022/10/02 04:27:34;;;;;;;2.90;1.40;;;;;;;10.58;100.00;98744.37;4348354;32;20244;-77
2022/10/02 04:30:19;;;;;;;1.20;0.93;;;;;;;10.53;100.00;98742.19;4345746;33;20205;-78
2022/10/02 04:32:48;;;;;;;4.75;1.30;;;;;;;10.44;100.00;98748.25;4345488;33;20165;-78
2022/10/02 04:35:37;;;;;;;1.50;1.10;;;;;;;10.45;100.00;98758.59;4345582;33;20119;-78
2022/10/02 04:38:32;;;;;;;3.08;1.20;;;;;;;10.38;100.00;98764.50;4301602;33;20136;-78
2022/10/02 04:41:06;;;;;;;;;;;;;;;10.33;100.00;98775.41;4301833;33;20609;-78
2022/10/02 04:43:49;;;;;;;2.53;1.10;;;;;;;10.29;100.00;98785.28;4289797;33;20477;-77
2022/10/02 04:46:32;;;;;;;1.20;1.00;;;;;;;10.29;100.00;98784.44;4303352;33;20522;-78
2022/10/02 04:49:18;;;;;;;2.33;1.08;;;;;;;10.25;100.00;98794.38;4345608;33;20131;-78
2022/10/02 04:52:09;;;;;;;3.65;0.90;;;;;;;10.17;100.00;98793.38;4345923;33;20258;-78
2022/10/02 04:55:02;;;;;;;2.72;0.90;;;;;;;10.06;100.00;98800.38;4334018;33;20119;-78
2022/10/02 04:58:03;;;;;;;1.62;1.10;;;;;;;9.97;100.00;98803.78;4345447;33;20501;-77
2022/10/02 05:01:05;;;;;;;1.27;1.05;;;;;;;10.08;100.00;98815.94;4345684;33;20103;-78
2022/10/02 05:03:59;;;;;;;2.72;0.95;;;;;;;10.08;100.00;98814.16;4345845;33;20135;-78
2022/10/02 05:07:11;;;;;;;1.98;1.12;;;;;;;10.08;100.00;98811.56;4345339;33;20441;-78
2022/10/02 05:09:57;;;;;;;1.77;1.00;;;;;;;10.10;100.00;98821.88;4333228;33;20095;-78
2022/10/02 05:12:44;;;;;;;1.20;1.05;;;;;;;10.17;100.00;98823.00;4345441;33;20127;-78
2022/10/02 05:15:15;;;;;;;3.85;1.10;;;;;;;10.32;100.00;98833.91;4367385;32;20535;-77
2022/10/02 05:18:12;;;;;;;1.33;1.00;;;;;;;10.39;100.00;98834.25;4402879;32;20117;-77
2022/10/02 05:20:59;;;;;;;1.77;0.90;;;;;;;10.52;100.00;98836.63;4392811;32;20156;-78
2022/10/02 05:24:04;;;;;;;1.08;0.90;;;;;;;10.70;100.00;98834.97;4392460;32;20099;-78
2022/10/02 05:26:43;;;;;;;1.50;0.93;;;;;;;10.84;100.00;98831.16;4374771;32;20716;-78
2022/10/02 05:29:49;;;;;;;1.17;0.90;;;;;;;11.04;100.00;98837.22;4375279;32;20123;-78
2022/10/02 05:32:53;;;;;;;2.28;1.00;;;;;;;11.12;100.00;98845.22;4360016;32;20535;-78
2022/10/02 05:35:23;;;;;;;1.10;1.00;;;;;;;11.25;100.00;98846.72;4360087;32;20178;-77
2022/10/02 05:37:59;;;;;;;1.02;0.70;;;;;;;11.40;100.00;98841.87;4359987;32;20103;-78
2022/10/02 05:40:31;;;;;;;1.10;0.88;;;;;;;11.53;100.00;98845.03;4360233;32;20452;-77
2022/10/02 05:43:06;;;;;;;0.90;0.75;;;;;;;11.67;100.00;98856.88;4359697;32;20091;-77
2022/10/02 05:45:39;;;;;;;3.72;0.90;;;;;;;11.82;100.00;98850.19;4360204;32;20609;-78
2022/10/02 05:48:15;;;;;;;5.65;1.08;;;;;;;11.83;100.00;98851.84;4360063;32;20091;-78
2022/10/02 05:50:45;;;;;;;1.10;0.93;;;;;;;11.86;100.00;98856.81;4360015;32;20178;-78
2022/10/02 05:53:41;;;;;;;8.55;1.02;;;;;;;11.93;100.00;98856.28;4359623;32;20603;-78
2022/10/02 05:56:12;;;;;;;1.30;0.90;;;;;;;11.77;100.00;98865.56;4359969;32;20182;-77
2022/10/02 05:58:59;;;;;;;1.87;1.20;;;;;;;11.70;100.00;98869.72;4359843;32;20106;-78
2022/10/02 06:01:34;;;;;;;2.10;0.95;;;;;;;11.67;100.00;98875.25;4347452;32;20630;-78
2022/10/02 06:04:18;;;;;;;1.25;1.15;;;;;;;11.75;100.00;98875.38;4357180;32;20141;-78
2022/10/02 06:06:50;;;;;;;1.62;1.08;;;;;;;11.74;100.00;98878.97;4332720;33;20102;-78
2022/10/02 06:09:25;;;;;;;3.47;0.85;;;;;;;11.81;100.00;98880.06;4370502;32;20141;-78
2022/10/02 06:11:58;;;;;;;4.20;0.90;;;;;;;11.83;100.00;98890.41;4391078;32;20098;-78
2022/10/02 06:14:36;;;;;;;1.05;0.90;;;;;;;11.84;100.00;98887.66;4391964;32;20129;-78
2022/10/02 06:17:17;;;;;;;1.23;0.90;;;;;;;11.87;100.00;98886.53;4403300;32;20482;-78
2022/10/02 06:20:05;;;;;;;1.30;1.00;;;;;;;11.88;100.00;98899.53;4403171;32;20784;-78
2022/10/02 06:22:42;;;;;;;1.05;0.90;;;;;;;11.99;100.00;98901.19;4391950;32;20085;-78
2022/10/02 06:25:20;;;;;;;1.87;1.15;;;;;;;11.98;100.00;98911.81;4391008;32;20101;-78
2022/10/02 06:27:54;;;;;;;1.92;1.20;;;;;;;12.02;100.00;98905.31;4402798;32;20417;-78
2022/10/02 06:30:22;;;;;;;1.62;1.12;;;;;;;12.12;100.00;98908.72;4393093;32;20095;-78
2022/10/02 06:32:52;;;;;;;4.07;1.33;;;;;;;12.19;100.00;98912.44;4417673;32;20093;-78
2022/10/02 06:35:30;;;;;;;5.22;1.50;;;;;;;12.19;100.00;98911.63;4423959;32;20086;-78
2022/10/02 06:38:19;;;;;;;5.57;1.42;;;;;;;12.12;100.00;98915.78;4423906;32;20217;-78
2022/10/02 06:41:14;;;;;;;5.07;1.58;;;;;;;12.21;100.00;98930.69;4424070;32;20080;-78
2022/10/02 06:44:00;;;;;;;3.92;1.70;;;;;;;12.20;100.00;98940.38;4424102;32;20102;-78
2022/10/02 06:46:38;;;;;;;4.37;1.98;;;;;;;12.25;100.00;98932.88;4423834;32;20078;-78
2022/10/02 06:49:24;;;;;;;7.10;1.98;;;;;;;12.28;100.00;98936.19;4423789;32;20522;-78
2022/10/02 06:52:06;;;;;;;5.22;1.60;;;;;;;12.28;100.00;98941.44;4410212;32;20123;-77
2022/10/02 06:55:02;;;;;;;3.60;1.27;;;;;;;12.29;100.00;98941.28;4423792;32;20078;-78
2022/10/02 06:57:51;;;;;;;5.03;1.73;;;;;;;12.37;100.00;98953.69;4410171;32;20432;-78
2022/10/02 07:00:20;;;;;;;8.68;1.67;;;;;;;12.43;100.00;98953.97;4410111;32;20753;-78
2022/10/02 07:02:53;;;;;;;3.03;1.30;;;;;;;12.37;100.00;98945.81;4410245;32;20164;-78
2022/10/02 07:05:38;;;;;;;2.78;1.42;;;;;;;12.43;100.00;98953.97;4423807;32;20090;-78
2022/10/02 07:08:14;;;;;;;4.50;1.40;;;;;;;12.57;100.00;98957.91;4423727;32;20172;-78
2022/10/02 07:11:11;;;;;;;4.90;1.12;;;;;;;12.67;100.00;98967.56;4423707;32;20160;-78
2022/10/02 07:14:12;;;;;;;9.05;1.55;;;;;;;12.72;100.00;98971.41;4360965;32;20114;-78
2022/10/02 07:16:51;;;;;;;4.65;1.30;;;;;;;12.77;100.00;98970.97;4361193;32;20126;-78
2022/10/02 07:19:21;;;;;;;2.28;1.20;;;;;;;12.77;100.00;98965.72;4360945;32;20485;-78
2022/10/02 07:22:01;;;;;;;1.87;1.10;;;;;;;12.81;100.00;98974.13;4361042;32;20508;-77
2022/10/02 07:25:25;;;;;;;1.45;1.10;;;;;;;12.93;100.00;98965.91;4360819;32;20166;-78
2022/10/02 07:28:15;;;;;;;2.58;1.12;;;;;;;13.16;100.00;98977.78;4302116;33;20088;-78
2022/10/02 07:31:00;;;;;;;1.77;0.75;;;;;;;13.12;100.00;98985.97;4302420;33;20125;-78
2022/10/02 07:33:35;;;;;;;1.92;0.90;;;;;;;13.18;100.00;98973.22;4302202;33;20214;-78
2022/10/02 07:36:12;;;;;;;2.62;1.25;;;;;;;13.26;100.00;98983.81;4302223;33;20152;-77
2022/10/02 07:38:51;;;;;;;2.65;0.88;;;;;;;13.25;100.00;98983.00;4302300;33;20450;-78
2022/10/02 07:42:19;;;;;;;1.10;0.90;;;;;;;13.35;100.00;98982.13;4301740;33;20099;-78
2022/10/02 07:45:43;;;;;;;3.47;0.80;;;;;;;13.32;100.00;98980.59;4230667;33;20168;-78
2022/10/02 07:48:16;;;;;;;2.90;1.35;;;;;;;13.31;100.00;98986.84;4166624;34;20122;-78
2022/10/02 07:50:53;;;;;;;3.75;1.02;;;;;;;13.38;100.00;98982.66;4207095;33;20177;-78
2022/10/02 07:53:39;;;;;;;2.53;0.70;;;;;;;13.59;100.00;98994.69;4219194;33;20133;-78
2022/10/02 07:56:18;;;;;;;1.73;1.00;;;;;;;13.55;100.00;98996.81;4207586;33;20114;-78
2022/10/02 07:58:49;;;;;;;2.55;1.15;;;;;;;13.66;100.00;98998.38;4219069;33;20110;-78
2022/10/02 08:01:18;;;;;;;7.43;0.95;;;;;;;13.84;100.00;99003.66;4219414;33;20097;-78
2022/10/02 08:03:52;;;;;;;5.72;1.20;;;;;;;13.86;100.00;99004.31;4211656;33;20098;-79
2022/10/02 08:06:19;;;;;;;2.55;1.77;;;;;;;14.04;100.00;99008.75;4261408;33;20185;-78
2022/10/02 08:08:58;;;;;;;3.08;1.12;;;;;;;14.16;100.00;99012.78;4273323;33;20109;-79
2022/10/02 08:11:29;;;;;;;4.47;0.90;;;;;;;14.14;100.00;99012.06;4261318;33;20478;-78
2022/10/02 08:14:10;;;;;;;2.60;1.12;;;;;;;14.22;99.07;99009.53;4261553;33;20194;-78
2022/10/02 08:16:52;;;;;;;2.55;0.93;;;;;;;14.11;99.47;99009.75;4272923;33;20570;-78
2022/10/02 08:19:28;;;;;;;2.65;0.95;;;;;;;14.32;100.00;99007.63;4309256;33;20116;-78
2022/10/02 08:22:42;;;;;;;3.20;1.12;;;;;;;14.24;98.01;98990.91;4370860;32;20203;-78
2022/10/02 08:25:29;;;;;;;2.65;1.05;;;;;;;14.30;97.43;99014.00;4384250;32;20098;-78
2022/10/02 08:28:18;;;;;;;2.53;1.35;;;;;;;14.17;95.04;99006.50;4419736;32;20106;-78
2022/10/02 08:30:45;;;;;;;2.15;1.15;;;;;;;14.19;95.23;99018.56;4419444;32;20098;-78
2022/10/02 08:33:17;;;;;;;5.68;1.10;;;;;;;14.27;94.58;99025.69;4407945;32;20129;-78
2022/10/02 08:35:47;;;;;;;4.93;1.35;;;;;;;14.63;98.33;99024.78;4408198;32;20082;-78
2022/10/02 08:39:08;;;;;;;3.60;1.35;;;;;;;14.75;92.29;99027.94;4408499;32;20140;-78
2022/10/02 08:41:47;;;;;;;3.60;1.20;;;;;;;14.60;92.47;99020.63;4405629;32;20118;-78
2022/10/02 08:44:35;;;;;;;3.67;1.00;;;;;;;14.70;93.75;99026.63;4405832;32;20108;-78
2022/10/02 08:47:31;;;;;;;3.15;0.88;;;;;;;14.84;93.63;99022.56;4405476;32;20135;-78
2022/10/02 08:50:36;;;;;;;2.28;0.82;;;;;;;14.98;95.64;99018.50;4405684;32;20110;-78
2022/10/02 08:53:31;;;;;;;2.83;0.95;;;;;;;14.73;91.25;99021.03;4405666;32;21041;-79
2022/10/02 08:56:34;;;;;;;1.20;0.88;;;;;;;14.68;91.35;99028.59;4405652;32;20463;-78
2022/10/02 08:59:22;;;;;;;3.30;1.00;;;;;;;14.77;93.78;99032.09;4405866;32;20582;-78
2022/10/02 09:02:11;;;;;;;2.22;1.10;;;;;;;14.87;90.59;99027.53;4405365;32;20141;-78
2022/10/02 09:05:08;;;;;;;3.17;1.05;;;;;;;14.90;89.71;99015.84;4405565;32;20126;-79
2022/10/02 09:08:02;;;;;;;3.87;1.23;;;;;;;14.68;90.60;99023.31;4405390;32;20232;-79
2022/10/02 09:10:54;;;;;;;4.57;1.05;;;;;;;14.92;90.83;99011.22;4405243;32;20108;-79
2022/10/02 09:13:30;;;;;;;2.35;0.90;;;;;;;15.13;88.56;99016.09;4405533;32;20185;-79
2022/10/02 09:16:08;;;;;;;2.33;0.80;;;;;;;15.41;88.50;99014.03;4418195;32;20496;-79
2022/10/02 09:18:47;;;;;;;3.00;0.80;;;;;;;15.52;87.95;99022.59;4409716;32;20150;-79
2022/10/02 09:21:33;;;;;;;4.93;0.90;;;;;;;15.26;86.31;99027.00;4423033;32;20097;-78
2022/10/02 09:24:38;;;;;;;1.98;0.57;;;;;;;15.37;87.01;99025.06;4409277;32;20411;-78
2022/10/02 09:27:39;;;;;;;1.90;0.57;;;;;;;15.57;86.22;99022.94;4422878;32;20135;-78
2022/10/02 09:30:20;;;;;;;3.33;0.90;;;;;;;15.32;84.95;99027.34;4409538;32;20454;-79
2022/10/02 09:32:59;;;;;;;2.22;0.70;;;;;;;15.29;85.00;99010.03;4408992;32;20105;-78
2022/10/02 09:35:45;;;;;;;4.40;1.08;;;;;;;15.14;82.61;99007.19;4423071;32;20121;-79
2022/10/02 09:38:21;;;;;;;3.97;0.88;;;;;;;15.47;84.78;99007.25;4423090;32;20093;-79
2022/10/02 09:41:26;;;;;;;3.60;0.77;;;;;;;15.98;82.52;98993.13;4408966;32;20535;-79
2022/10/02 09:44:06;;;;;;;4.20;0.88;;;;;;;16.42;80.41;98996.16;4422861;32;20116;-79
2022/10/02 09:46:34;;;;;;;5.15;0.85;;;;;;;16.12;77.88;98995.91;4408746;32;20117;-79
2022/10/02 09:49:24;;;;;;;6.15;1.23;;;;;;;16.08;74.91;98999.88;4422900;32;20097;-79
2022/10/02 09:52:09;;;;;;;3.45;1.08;;;;;;;15.79;75.98;99001.22;4422720;32;20108;-79
2022/10/02 09:55:00;;;;;;;4.62;0.90;;;;;;;15.63;76.55;99006.44;4422659;32;20097;-79
2022/10/02 09:58:04;;;;;;;1.90;0.70;;;;;;;15.68;74.98;98998.03;4422621;32;20503;-79
2022/10/02 10:01:09;;;;;;;2.10;0.80;;;;;;;15.81;74.84;98994.94;4422706;32;20162;-79
2022/10/02 10:03:55;;;;;;;;;;;;;;;16.09;75.59;98985.69;4422651;32;20097;-79
2022/10/02 10:06:51;;;;;;;3.45;0.80;;;;;;;15.98;77.53;98993.94;4422486;32;20075;-79
2022/10/02 10:09:35;;;;;;;2.37;0.98;;;;;;;15.98;74.86;98980.72;4422619;32;20483;-78
2022/10/02 10:12:28;;;;;;;1.70;0.88;;;;;;;16.22;76.96;98973.75;4408673;32;20161;-79
2022/10/02 10:15:28;;;;;;;1.80;0.95;;;;;;;15.93;73.15;98985.69;4422746;32;20087;-79
2022/10/02 10:18:08;;;;;;;2.95;0.75;;;;;;;15.96;73.90;98977.44;4409305;32;20549;-79
2022/10/02 10:20:57;;;;;;;3.60;1.08;;;;;;;16.01;73.44;98990.97;4408798;32;20086;-79
2022/10/02 10:23:36;;;;;;;3.92;0.90;;;;;;;16.08;73.83;98984.03;4422235;32;20774;-79
2022/10/02 10:26:23;;;;;;;4.05;1.10;;;;;;;15.82;74.58;98988.66;4422424;32;20680;-79
2022/10/02 10:29:13;;;;;;;3.65;1.20;;;;;;;15.56;74.33;98985.16;4422191;32;20457;-79
2022/10/02 10:32:09;;;;;;;3.10;1.67;;;;;;;15.40;76.08;98985.97;4405092;32;20134;-79
2022/10/02 10:34:57;;;;;;;3.53;1.20;;;;;;;15.32;76.21;98983.31;4408384;32;20114;-79
2022/10/02 10:40:34;;;;;;;6.47;1.48;;;;;;;15.77;78.37;98981.19;4410238;32;20098;-79
2022/10/02 10:43:46;;;;;;;3.22;1.30;;;;;;;15.87;77.89;98981.88;4422132;32;20090;-79
2022/10/02 10:46:25;;;;;;;6.18;1.10;;;;;;;15.89;76.81;98979.09;4373877;32;20122;-79
2022/10/02 10:49:18;;;;;;;4.50;0.80;;;;;;;15.95;74.24;98968.66;4374277;32;20114;-80
2022/10/02 10:52:02;;;;;;;4.07;1.35;;;;;;;16.04;74.03;98969.47;4374216;32;20715;-80
2022/10/02 10:54:47;;;;;;;3.15;1.10;;;;;;;15.94;74.37;98988.16;4374062;32;20169;-79
2022/10/02 10:57:33;;;;;;;3.10;0.95;;;;;;;15.83;76.22;98971.81;4373933;32;20177;-79
2022/10/02 11:00:15;;;;;;;3.87;1.02;;;;;;;15.75;75.91;98962.06;4374150;32;20087;-79
2022/10/02 11:03:18;;;;;;;2.87;1.27;;;;;;;15.65;76.44;98967.47;4373735;32;20562;-79
2022/10/02 11:06:02;;;;;;;2.37;0.98;;;;;;;15.63;76.64;98968.66;4373816;32;20154;-79
2022/10/02 11:08:47;;;;;;;5.05;1.55;;;;;;;15.51;77.39;98982.16;4373715;32;20186;-80
2022/10/02 11:11:26;;;;;;;3.22;0.80;;;;;;;15.65;77.85;98977.22;4373756;32;20129;-79
2022/10/02 11:14:04;;;;;;;2.17;0.90;;;;;;;15.77;77.84;98976.75;4373668;32;20095;-79
2022/10/02 11:16:47;;;;;;;3.35;0.80;;;;;;;15.67;78.02;98978.72;4374247;32;20142;-79
2022/10/02 11:19:36;;;;;;;2.00;0.85;;;;;;;15.79;79.18;98974.78;4376008;32;20177;-79
2022/10/02 11:22:23;;;;;;;1.92;0.70;;;;;;;15.89;78.89;98964.03;4387231;32;20474;-80
2022/10/02 11:25:12;;;;;;;4.15;0.73;;;;;;;15.78;77.81;98967.84;4424046;32;20105;-79
2022/10/02 11:27:40;;;;;;;2.70;0.88;;;;;;;16.11;79.92;98973.09;4423437;32;20133;-79
2022/10/02 11:30:37;;;;;;;4.70;1.02;;;;;;;16.11;76.90;98965.19;4423720;32;20119;-79
2022/10/02 11:33:40;;;;;;;2.55;0.60;;;;;;;16.26;77.53;98959.19;4418691;32;162603;-79
2022/10/02 11:36:17;;;;;;;2.40;0.73;;;;;;;16.22;76.30;98955.25;4423909;32;20155;-79
2022/10/02 11:39:23;;;;;;;3.80;0.82;;;;;;;16.00;77.06;98962.88;4423659;32;20128;-79
2022/10/02 11:42:17;;;;;;;4.82;0.80;;;;;;;16.17;79.17;98947.00;4423513;32;20165;-79
2022/10/02 11:44:54;;;;;;;1.58;0.82;;;;;;;16.45;79.58;98937.66;4423491;32;20404;-79
2022/10/02 11:47:45;;;;;;;1.77;0.80;;;;;;;16.27;79.12;98945.81;4409918;32;20104;-80
2022/10/02 11:50:31;;;;;;;1.12;0.60;;;;;;;15.93;82.05;98951.34;4423545;32;20109;-79
2022/10/02 11:53:33;;;;;;;2.92;0.70;;;;;;;15.66;84.73;98953.31;4423461;32;20514;-79
2022/10/02 11:56:21;;;;;;;2.83;0.75;;;;;;;15.41;88.32;98958.59;4423625;32;20093;-79
2022/10/02 11:59:01;;;;;;;1.02;0.60;;;;;;;15.30;89.78;98947.50;4423572;32;20105;-79
2022/10/02 12:01:43;;;;;;;1.60;0.62;;;;;;;15.18;90.93;98936.44;4409759;32;20153;-79
2022/10/02 12:04:32;;;;;;;1.00;0.82;;;;;;;15.14;94.02;98943.00;4404372;32;20132;-80
2022/10/02 12:07:15;;;;;;;1.25;0.60;;;;;;;15.02;94.76;98945.97;4429909;32;20161;-79
2022/10/02 12:10:26;;;;;;;1.52;0.57;;;;;;;15.04;93.53;98946.63;4423418;32;20104;-79
2022/10/02 12:13:14;;;;;;;1.95;0.68;;;;;;;15.06;94.43;98949.94;4421914;32;20123;-79
2022/10/02 12:15:51;;;;;;;3.25;0.60;;;;;;;14.98;92.76;98944.63;4423278;32;20131;-79
2022/10/02 12:18:53;;;;;;;1.50;0.68;;;;;;;14.97;94.33;98942.97;4422094;32;20102;-80
2022/10/02 12:28:10;;;;;;;1.62;0.70;;;;;;;15.13;94.66;98926.37;4345619;32;20568;-80
2022/10/02 12:30:53;;;;;;;3.40;0.73;;;;;;;15.15;93.84;98927.00;4345585;33;20095;-79
2022/10/02 12:33:42;;;;;;;5.33;0.93;;;;;;;15.13;94.43;98920.28;4345522;33;20118;-80
2022/10/02 12:36:40;;;;;;;1.50;0.65;;;;;;;15.25;95.61;98924.25;4345719;33;20637;-79
2022/10/02 12:39:36;;;;;;;1.20;0.80;;;;;;;15.49;96.08;98920.78;4345678;33;20175;-79
2022/10/02 12:42:39;;;;;;;2.20;0.80;;;;;;;15.54;93.72;98918.47;4345499;33;20125;-79
2022/10/02 12:45:06;;;;;;;3.03;0.68;;;;;;;15.59;93.91;98913.53;4337852;33;20150;-79
2022/10/02 12:47:52;;;;;;;1.05;0.50;;;;;;;15.47;93.17;98911.37;4345351;33;20186;-79
2022/10/02 12:50:29;;;;;;;2.60;0.50;;;;;;;15.20;94.78;98900.97;4345521;33;20187;-80
2022/10/02 12:53:17;;;;;;;1.02;0.75;;;;;;;15.16;95.95;98899.66;4345810;33;20151;-79